Time;durP1;ratioP1;P1;durP2;ratioP2;P2;SDS_P1;SDS_P2;PMS_P1;PMS_P2;Temp;Humidity;BMP_temperature;BMP_pressure;BME280_temperature;BME280_humidity;BME280_pressure;Samples;Min_cycle;Max_cycle;Signal;HPM_P1;HPM_P2
2023/05/24 00:02:22;;;;;;;0.30;0.30;;;;;;;16.77;53.69;102499.69;5057878;28;20084;-63
2023/05/24 00:04:48;;;;;;;0.20;0.20;;;;;;;16.64;54.32;102499.84;5027334;28;20463;-63
2023/05/24 00:07:14;;;;;;;0.22;0.22;;;;;;;16.72;53.55;102494.13;5044513;28;20033;-65
2023/05/24 00:09:40;;;;;;;0.10;0.10;;;;;;;16.79;53.39;102488.59;5037913;28;20032;-65
2023/05/24 00:12:06;;;;;;;0.20;0.20;;;;;;;16.99;52.39;102498.19;5045366;28;20516;-64
2023/05/24 00:14:31;;;;;;;0.20;0.20;;;;;;;17.17;51.65;102494.63;5044934;28;20033;-64
2023/05/24 00:16:57;;;;;;;0.30;0.30;;;;;;;17.06;52.11;102498.91;5044958;28;20463;-65
2023/05/24 00:19:22;;;;;;;0.30;0.30;;;;;;;17.18;51.96;102493.53;5055739;28;20704;-64
2023/05/24 00:21:47;;;;;;;0.30;0.30;;;;;;;16.42;53.87;102495.84;5054164;28;20571;-63
2023/05/24 00:24:13;;;;;;;0.25;0.25;;;;;;;16.29;54.17;102496.81;5055059;28;20528;-65
2023/05/24 00:26:39;;;;;;;0.30;0.30;;;;;;;15.98;55.38;102498.75;5054339;28;20585;-64
2023/05/24 00:29:05;;;;;;;0.30;0.30;;;;;;;16.24;54.99;102488.50;5055867;28;20131;-64
2023/05/24 00:31:35;;;;;;;0.20;0.20;;;;;;;16.21;55.66;102490.81;5054582;28;20067;-63
2023/05/24 00:34:00;;;;;;;0.17;0.17;;;;;;;16.17;55.60;102492.31;5053902;28;20914;-64
2023/05/24 00:36:26;;;;;;;0.38;0.38;;;;;;;16.23;55.80;102486.84;5055601;28;20036;-64
2023/05/24 00:38:52;;;;;;;0.20;0.20;;;;;;;16.18;55.78;102473.09;5055052;28;20923;-65
2023/05/24 00:41:18;;;;;;;0.20;0.20;;;;;;;15.89;57.29;102479.19;5054214;28;20577;-63
2023/05/24 00:43:43;;;;;;;0.30;0.30;;;;;;;15.94;56.23;102476.66;5056235;28;20120;-64
2023/05/24 00:46:16;;;;;;;0.20;0.20;;;;;;;16.05;56.25;102484.09;5047711;28;20049;-64
2023/05/24 00:48:42;;;;;;;0.30;0.30;;;;;;;16.04;56.16;102481.59;5047149;28;20416;-65
2023/05/24 00:51:08;;;;;;;0.22;0.22;;;;;;;16.13;55.98;102485.69;5041731;28;20013;-64
2023/05/24 00:53:36;;;;;;;0.40;0.40;;;;;;;15.93;56.09;102476.88;5041571;28;20041;-64
2023/05/24 00:56:02;;;;;;;0.20;0.20;;;;;;;15.95;56.25;102470.19;5049433;28;20492;-64
2023/05/24 00:58:29;;;;;;;0.30;0.30;;;;;;;15.92;56.78;102473.31;5048452;28;20045;-64
2023/05/24 01:00:59;;;;;;;0.20;0.20;;;;;;;16.72;54.74;102474.28;5039481;28;20170;-64
2023/05/24 01:03:28;;;;;;;0.30;0.30;;;;;;;16.89;53.13;102478.88;5028882;28;20469;-63
2023/05/24 01:06:01;;;;;;;0.20;0.20;;;;;;;16.98;52.85;102480.22;5029084;28;20021;-64
2023/05/24 01:08:38;;;;;;;0.10;0.10;;;;;;;17.01;52.82;102474.34;5046190;28;20138;-65
2023/05/24 01:11:13;;;;;;;0.20;0.20;;;;;;;17.08;52.34;102474.28;5036303;28;20499;-64
2023/05/24 01:13:43;;;;;;;0.10;0.10;;;;;;;16.19;54.72;102468.53;5038133;28;20040;-63
2023/05/24 01:16:16;;;;;;;0.17;0.17;;;;;;;16.59;54.16;102467.94;5028935;28;20045;-63
2023/05/24 01:18:48;;;;;;;0.17;0.17;;;;;;;16.90;53.10;102472.41;5028447;28;20030;-64
2023/05/24 01:21:47;;;;;;;0.17;0.17;;;;;;;17.16;52.16;102458.47;5028456;28;20051;-63
2023/05/24 01:24:12;;;;;;;0.20;0.20;;;;;;;16.96;52.52;102465.22;5034530;28;20068;-63
2023/05/24 01:27:12;;;;;;;0.20;0.20;;;;;;;17.13;52.13;102469.81;5045400;28;20045;-65
2023/05/24 01:29:39;;;;;;;0.20;0.20;;;;;;;16.99;52.21;102468.31;5038382;28;20130;-64
2023/05/24 01:32:05;;;;;;;0.20;0.20;;;;;;;17.04;52.12;102473.88;5029791;28;20376;-64
2023/05/24 01:34:31;;;;;;;0.40;0.40;;;;;;;17.05;52.12;102478.25;5047859;28;20429;-64
2023/05/24 01:36:56;;;;;;;0.30;0.30;;;;;;;17.06;52.36;102471.75;5032090;28;20030;-63
2023/05/24 01:39:25;;;;;;;0.20;0.20;;;;;;;17.07;52.49;102472.59;5040061;28;20108;-65
2023/05/24 01:41:58;;;;;;;0.20;0.20;;;;;;;17.25;52.35;102473.41;5053353;28;20389;-63
2023/05/24 01:44:36;;;;;;;0.30;0.30;;;;;;;17.26;51.87;102476.94;5062904;28;20112;-64
2023/05/24 01:47:16;;;;;;;0.10;0.10;;;;;;;17.43;52.11;102480.69;5036488;28;20559;-63
2023/05/24 01:49:48;;;;;;;0.20;0.20;;;;;;;17.04;52.46;102478.50;5043014;28;20513;-64
2023/05/24 01:52:21;;;;;;;0.25;0.25;;;;;;;16.83;53.54;102468.91;5059404;28;20040;-62
2023/05/24 01:54:55;;;;;;;0.28;0.28;;;;;;;16.24;55.69;102472.22;5050022;28;20040;-63
2023/05/24 01:57:22;;;;;;;0.20;0.20;;;;;;;15.85;57.37;102461.72;5029215;28;20024;-63
2023/05/24 01:59:48;;;;;;;0.20;0.20;;;;;;;16.66;54.80;102463.28;5027492;28;20036;-64
2023/05/24 02:02:14;;;;;;;0.25;0.25;;;;;;;16.55;54.34;102464.00;5061976;28;20044;-64
2023/05/24 02:04:40;;;;;;;0.28;0.28;;;;;;;16.68;54.70;102458.44;5055274;28;20037;-63
2023/05/24 02:07:05;;;;;;;0.30;0.30;;;;;;;16.11;56.39;102463.38;5066679;28;20049;-65
2023/05/24 02:09:31;;;;;;;0.30;0.30;;;;;;;16.44;56.18;102459.31;5049197;28;20036;-63
2023/05/24 02:11:56;;;;;;;0.28;0.28;;;;;;;17.40;52.73;102456.69;5059732;28;20029;-63
2023/05/24 02:14:23;;;;;;;0.20;0.20;;;;;;;16.80;53.68;102449.53;5052122;28;20036;-64
2023/05/24 02:16:49;;;;;;;0.15;0.15;;;;;;;16.82;54.14;102450.97;5068432;28;20029;-65
2023/05/24 02:19:16;;;;;;;0.40;0.40;;;;;;;16.58;54.87;102449.16;5055779;28;20093;-65
2023/05/24 02:21:41;;;;;;;0.32;0.32;;;;;;;17.07;52.93;102448.97;5051472;28;20064;-64
2023/05/24 02:24:10;;;;;;;0.20;0.20;;;;;;;16.75;53.43;102450.22;5065945;28;20429;-65
2023/05/24 02:26:35;;;;;;;0.28;0.28;;;;;;;16.30;55.07;102449.63;5055018;28;20110;-63
2023/05/24 02:29:01;;;;;;;0.30;0.30;;;;;;;16.56;54.17;102451.28;5066851;28;20502;-65
2023/05/24 02:31:27;;;;;;;0.10;0.10;;;;;;;16.71;53.45;102453.63;5033226;28;20037;-65
2023/05/24 02:33:56;;;;;;;0.22;0.22;;;;;;;17.04;52.88;102451.34;5051257;28;20029;-63
2023/05/24 02:36:22;;;;;;;0.30;0.30;;;;;;;16.79;53.44;102448.69;5067160;28;20041;-64
2023/05/24 02:38:48;;;;;;;0.30;0.30;;;;;;;16.33;55.25;102451.88;5055520;28;20488;-64
2023/05/24 02:41:16;;;;;;;0.20;0.20;;;;;;;16.67;53.88;102447.78;5063111;28;20044;-63
2023/05/24 02:43:42;;;;;;;0.10;0.10;;;;;;;16.73;53.97;102444.19;5051040;28;20128;-63
2023/05/24 02:46:08;;;;;;;0.13;0.13;;;;;;;16.88;53.48;102450.06;5051130;28;20124;-64
2023/05/24 02:48:33;;;;;;;0.30;0.30;;;;;;;16.81;53.47;102443.03;5050411;28;20036;-63
2023/05/24 02:51:02;;;;;;;0.13;0.13;;;;;;;17.03;52.66;102441.50;5055000;28;20477;-63
2023/05/24 02:53:28;;;;;;;0.10;0.10;;;;;;;16.83;52.91;102439.03;5059155;28;20064;-63
2023/05/24 02:55:53;;;;;;;0.30;0.30;;;;;;;16.94;53.06;102440.19;5070718;28;20087;-64
2023/05/24 02:58:18;;;;;;;0.10;0.10;;;;;;;17.03;52.17;102441.50;5055599;28;20041;-64
2023/05/24 03:00:43;;;;;;;0.10;0.10;;;;;;;16.80;53.31;102436.81;5067606;28;20132;-62
2023/05/24 03:03:09;;;;;;;0.20;0.20;;;;;;;16.77;52.55;102439.94;5065737;28;20028;-64
2023/05/24 03:05:34;;;;;;;0.30;0.30;;;;;;;16.72;53.35;102445.25;5050835;28;20063;-63
2023/05/24 03:08:00;;;;;;;0.30;0.30;;;;;;;16.49;54.86;102443.19;5063585;28;20492;-63
2023/05/24 03:10:25;;;;;;;0.22;0.22;;;;;;;16.76;53.74;102442.91;5054524;28;20053;-64
2023/05/24 03:12:50;;;;;;;0.30;0.30;;;;;;;16.90;53.04;102438.97;5066961;28;20128;-64
2023/05/24 03:15:16;;;;;;;0.20;0.20;;;;;;;16.77;53.60;102441.84;5057864;28;20078;-65
2023/05/24 03:17:41;;;;;;;0.30;0.30;;;;;;;16.69;53.49;102445.69;5060439;28;20043;-67
2023/05/24 03:20:07;;;;;;;0.20;0.20;;;;;;;16.59;53.81;102438.06;5054306;28;20080;-64
2023/05/24 03:22:32;;;;;;;0.20;0.20;;;;;;;16.56;54.28;102435.81;5050874;28;20041;-64
2023/05/24 03:24:57;;;;;;;0.30;0.30;;;;;;;16.49;54.26;102436.97;5066235;28;20500;-66
2023/05/24 03:27:23;;;;;;;0.20;0.20;;;;;;;16.78;53.24;102432.66;5057903;28;20393;-63
2023/05/24 03:29:48;;;;;;;0.20;0.20;;;;;;;16.41;54.68;102434.50;5059469;28;20396;-63
2023/05/24 03:32:13;;;;;;;0.30;0.30;;;;;;;16.84;53.33;102432.56;5031555;28;20393;-64
2023/05/24 03:34:39;;;;;;;0.25;0.25;;;;;;;16.68;53.07;102438.59;5051209;28;20566;-66
2023/05/24 03:37:05;;;;;;;0.20;0.20;;;;;;;16.85;53.14;102438.81;5057904;28;20128;-63
2023/05/24 03:39:30;;;;;;;0.28;0.28;;;;;;;16.85;53.06;102434.22;5057783;28;20067;-65
2023/05/24 03:41:55;;;;;;;0.30;0.30;;;;;;;16.45;54.99;102436.53;5050490;28;20039;-65
2023/05/24 03:44:21;;;;;;;0.13;0.13;;;;;;;16.77;53.73;102439.13;5059517;28;20127;-64
2023/05/24 03:46:46;;;;;;;0.20;0.20;;;;;;;16.77;53.87;102439.13;5066439;28;20124;-63
2023/05/24 03:49:11;;;;;;;0.30;0.30;;;;;;;16.65;53.48;102447.19;5053939;28;20135;-63
2023/05/24 03:51:37;;;;;;;0.20;0.20;;;;;;;16.82;53.46;102442.84;5050043;28;20474;-65
2023/05/24 03:54:02;;;;;;;0.20;0.20;;;;;;;16.52;54.19;102444.63;5063331;28;20532;-65
2023/05/24 03:56:27;;;;;;;0.20;0.20;;;;;;;16.73;54.27;102446.09;5069623;28;20029;-64
2023/05/24 03:58:53;;;;;;;0.20;0.20;;;;;;;16.55;54.92;102455.03;5052565;28;20040;-64
2023/05/24 04:01:19;;;;;;;0.30;0.30;;;;;;;16.73;54.57;102448.81;5062055;28;20033;-64
2023/05/24 04:03:45;;;;;;;0.25;0.25;;;;;;;16.61;54.18;102454.97;5048690;28;20462;-62
2023/05/24 04:06:12;;;;;;;0.35;0.35;;;;;;;16.44;55.76;102445.72;5029978;28;20025;-64
2023/05/24 04:08:37;;;;;;;0.20;0.20;;;;;;;16.58;55.50;102452.72;5028976;28;20033;-62
2023/05/24 04:11:02;;;;;;;0.20;0.20;;;;;;;16.86;54.17;102448.63;5047286;28;20082;-64
2023/05/24 04:13:28;;;;;;;0.30;0.30;;;;;;;16.75;55.03;102452.94;5050609;28;20554;-64
2023/05/24 04:15:53;;;;;;;0.20;0.20;;;;;;;16.81;54.67;102452.03;5053164;28;20048;-63
2023/05/24 04:18:19;;;;;;;0.22;0.22;;;;;;;16.71;55.22;102450.91;5064197;28;20052;-63
2023/05/24 04:20:44;;;;;;;0.15;0.15;;;;;;;16.87;53.73;102451.13;5050079;28;20044;-63
2023/05/24 04:23:09;;;;;;;0.28;0.28;;;;;;;16.86;54.43;102451.34;5054992;28;20082;-63
2023/05/24 04:25:35;;;;;;;0.30;0.30;;;;;;;17.02;53.96;102456.16;5033031;28;20569;-64
2023/05/24 04:28:02;;;;;;;0.20;0.20;;;;;;;16.97;53.86;102454.13;5061875;28;20131;-64
2023/05/24 04:30:29;;;;;;;0.30;0.30;;;;;;;17.18;53.57;102453.63;5052498;28;20037;-64
2023/05/24 04:32:57;;;;;;;0.17;0.17;;;;;;;16.87;54.26;102453.00;5060349;28;20060;-66
2023/05/24 04:35:24;;;;;;;0.30;0.30;;;;;;;17.15;53.80;102455.97;5056226;28;20047;-64
2023/05/24 04:37:50;;;;;;;0.28;0.28;;;;;;;17.08;54.60;102457.97;5062307;28;20057;-64
2023/05/24 04:40:16;;;;;;;0.28;0.28;;;;;;;17.17;53.98;102449.28;5052643;28;20033;-65
2023/05/24 04:42:41;;;;;;;0.20;0.20;;;;;;;17.12;53.52;102451.03;5048808;28;20146;-64
2023/05/24 04:45:07;;;;;;;0.10;0.10;;;;;;;17.06;54.36;102451.94;5048367;28;20025;-63
2023/05/24 04:47:33;;;;;;;0.10;0.10;;;;;;;17.06;54.24;102452.75;5047914;28;20036;-64
2023/05/24 04:49:58;;;;;;;0.20;0.20;;;;;;;17.37;53.85;102449.84;5050121;28;20028;-64
2023/05/24 04:52:24;;;;;;;0.20;0.20;;;;;;;17.49;53.72;102448.00;5047861;28;20133;-64
2023/05/24 04:54:50;;;;;;;0.20;0.20;;;;;;;17.12;54.70;102448.31;5047663;28;20526;-65
2023/05/24 04:57:15;;;;;;;0.30;0.30;;;;;;;17.39;54.10;102446.88;5031012;28;20041;-65
2023/05/24 04:59:42;;;;;;;0.20;0.20;;;;;;;17.35;54.00;102451.94;5048281;28;20044;-63
2023/05/24 05:02:08;;;;;;;0.20;0.20;;;;;;;16.84;56.14;102450.75;5047696;28;20433;-63
2023/05/24 05:04:33;;;;;;;0.30;0.30;;;;;;;17.00;55.12;102447.41;5047710;28;20033;-64
2023/05/24 05:06:58;;;;;;;0.20;0.20;;;;;;;17.20;56.04;102446.09;5048867;28;20489;-63
2023/05/24 05:09:24;;;;;;;0.20;0.20;;;;;;;17.37;54.67;102446.28;5047736;28;20572;-62
2023/05/24 05:11:49;;;;;;;0.20;0.20;;;;;;;17.37;55.12;102449.84;5047088;28;20088;-64
2023/05/24 05:14:15;;;;;;;0.30;0.30;;;;;;;17.75;54.02;102441.31;5047624;28;20056;-64
2023/05/24 05:16:40;;;;;;;0.20;0.20;;;;;;;17.65;54.50;102451.13;5053663;28;20060;-64
2023/05/24 05:19:06;;;;;;;0.10;0.10;;;;;;;16.53;57.82;102455.25;5062553;28;20061;-64
2023/05/24 05:21:32;;;;;;;0.20;0.20;;;;;;;17.19;54.87;102449.88;5047714;28;20029;-64
2023/05/24 05:24:00;;;;;;;0.20;0.20;;;;;;;17.53;55.11;102456.53;5049876;28;20033;-64
2023/05/24 05:26:27;;;;;;;0.10;0.10;;;;;;;17.73;53.86;102462.47;5031336;28;20053;-64
2023/05/24 05:28:53;;;;;;;0.30;0.30;;;;;;;17.30;54.08;102467.25;5051224;28;20094;-64
2023/05/24 05:31:19;;;;;;;0.10;0.10;;;;;;;17.35;54.70;102476.41;5053967;28;20025;-63
2023/05/24 05:33:44;;;;;;;0.20;0.20;;;;;;;17.30;55.07;102476.25;5047752;28;20037;-63
2023/05/24 05:36:10;;;;;;;0.10;0.10;;;;;;;18.05;52.92;102471.16;5049108;28;20021;-64
2023/05/24 05:38:35;;;;;;;0.25;0.25;;;;;;;17.19;54.81;102478.91;5047649;28;20177;-66
2023/05/24 05:41:00;;;;;;;0.20;0.20;;;;;;;16.90;56.35;102482.44;5050167;28;20033;-63
2023/05/24 05:43:27;;;;;;;0.20;0.20;;;;;;;16.95;56.04;102482.56;5055711;28;20527;-64
2023/05/24 05:45:53;;;;;;;0.20;0.20;;;;;;;17.29;55.03;102480.03;5054409;28;20038;-64
2023/05/24 05:48:18;;;;;;;0.28;0.28;;;;;;;17.10;55.00;102486.53;5060250;28;20028;-63
2023/05/24 05:50:44;;;;;;;0.15;0.15;;;;;;;17.10;55.16;102480.31;5052995;28;20075;-65
2023/05/24 05:53:09;;;;;;;0.20;0.20;;;;;;;16.96;55.88;102478.81;5054182;28;20029;-64
2023/05/24 05:55:35;;;;;;;0.20;0.20;;;;;;;17.90;52.90;102482.50;5067617;28;20032;-65
2023/05/24 05:58:00;;;;;;;0.10;0.10;;;;;;;17.34;54.46;102491.03;5052317;28;20044;-66
2023/05/24 06:00:25;;;;;;;0.20;0.20;;;;;;;17.61;54.03;102493.44;5064350;28;20483;-63
2023/05/24 06:02:51;;;;;;;0.20;0.20;;;;;;;17.26;55.16;102487.81;5051993;28;20476;-63
2023/05/24 06:05:17;;;;;;;0.10;0.10;;;;;;;18.79;50.85;102495.00;5058222;28;20086;-63
2023/05/24 06:07:43;;;;;;;0.10;0.10;;;;;;;18.22;52.98;102494.72;5057512;28;20041;-62
2023/05/24 06:10:08;;;;;;;0.20;0.20;;;;;;;17.22;54.63;102494.75;5061762;28;20059;-65
2023/05/24 06:12:34;;;;;;;0.20;0.20;;;;;;;17.61;54.13;102493.44;5051150;28;20547;-65
2023/05/24 06:14:59;;;;;;;0.20;0.20;;;;;;;17.47;54.14;102495.47;5064118;28;20021;-64
2023/05/24 06:17:26;;;;;;;0.15;0.15;;;;;;;17.70;53.37;102495.59;5047936;28;20291;-65
2023/05/24 06:19:52;;;;;;;0.22;0.22;;;;;;;17.55;53.60;102489.75;5051660;28;20040;-64
2023/05/24 06:22:18;;;;;;;0.10;0.10;;;;;;;17.80;53.99;102495.84;5049460;28;20037;-64
2023/05/24 06:24:43;;;;;;;0.20;0.20;;;;;;;18.72;50.86;102499.72;5069878;28;20066;-64
2023/05/24 06:27:09;;;;;;;0.10;0.10;;;;;;;18.79;50.33;102493.06;5066047;28;20024;-65
2023/05/24 06:29:34;;;;;;;0.13;0.13;;;;;;;18.00;52.20;102496.38;5060421;28;20431;-63
2023/05/24 06:32:00;;;;;;;0.30;0.30;;;;;;;17.26;54.75;102498.66;5058496;28;20036;-65
2023/05/24 06:34:26;;;;;;;0.20;0.20;;;;;;;17.74;53.44;102499.50;5067235;28;20041;-64
2023/05/24 06:36:51;;;;;;;0.20;0.20;;;;;;;18.54;51.47;102500.69;5054637;28;20108;-63
2023/05/24 06:39:17;;;;;;;0.20;0.20;;;;;;;18.38;51.84;102502.19;5065078;28;20020;-65
2023/05/24 06:41:44;;;;;;;0.20;0.20;;;;;;;17.07;55.07;102508.75;5062607;28;20037;-65
2023/05/24 06:44:10;;;;;;;0.20;0.20;;;;;;;18.59;50.71;102502.72;5056976;28;20043;-62
2023/05/24 06:46:36;;;;;;;0.10;0.10;;;;;;;17.52;52.18;102509.22;5067322;28;20028;-65
2023/05/24 06:49:02;;;;;;;0.20;0.20;;;;;;;18.11;50.31;102508.31;5054765;28;20142;-64
2023/05/24 06:51:27;;;;;;;0.20;0.20;;;;;;;18.02;50.90;102505.13;5050756;28;20362;-64
2023/05/24 06:53:52;;;;;;;0.20;0.20;;;;;;;18.88;49.74;102518.06;5063128;28;20029;-64
2023/05/24 06:56:18;;;;;;;0.30;0.30;;;;;;;18.40;49.99;102512.84;5070311;28;20122;-64
2023/05/24 06:58:43;;;;;;;0.10;0.10;;;;;;;18.64;49.61;102506.38;5054281;28;20110;-63
2023/05/24 07:01:09;;;;;;;0.10;0.10;;;;;;;18.68;49.91;102515.72;5063491;28;20029;-62
2023/05/24 07:03:35;;;;;;;0.15;0.15;;;;;;;18.96;47.81;102509.53;5061626;28;20024;-64
2023/05/24 07:06:00;;;;;;;0.17;0.17;;;;;;;18.78;48.98;102507.78;5063941;28;20029;-64
2023/05/24 07:08:26;;;;;;;0.22;0.22;;;;;;;18.45;48.67;102504.00;5054220;28;20397;-64
2023/05/24 07:10:52;;;;;;;0.13;0.13;;;;;;;18.08;47.12;102504.16;5066890;28;20048;-65
2023/05/24 07:13:18;;;;;;;0.15;0.15;;;;;;;20.18;44.36;102506.16;5057546;28;20025;-63
2023/05/24 07:15:45;;;;;;;0.20;0.20;;;;;;;20.60;42.98;102492.91;5059994;28;20036;-66
2023/05/24 07:18:11;;;;;;;0.10;0.10;;;;;;;20.21;43.54;102489.28;5050767;28;20024;-64
2023/05/24 07:20:36;;;;;;;0.10;0.10;;;;;;;21.00;42.82;102494.25;5053998;28;20053;-66
2023/05/24 07:23:03;;;;;;;0.20;0.20;;;;;;;20.28;43.73;102500.88;5070467;28;20160;-64
2023/05/24 07:25:28;;;;;;;0.10;0.10;;;;;;;19.62;44.79;102506.22;5069989;28;20404;-64
2023/05/24 07:27:54;;;;;;;0.20;0.20;;;;;;;19.51;44.44;102499.78;5058040;28;20037;-62
2023/05/24 07:30:19;;;;;;;0.20;0.20;;;;;;;19.64;44.17;102498.63;5066334;28;20028;-64
2023/05/24 07:32:45;;;;;;;0.20;0.20;;;;;;;19.46;44.72;102504.31;5053226;28;20049;-63
2023/05/24 07:35:14;;;;;;;0.10;0.10;;;;;;;20.17;42.78;102501.75;5063683;28;20029;-63
2023/05/24 07:37:41;;;;;;;0.20;0.20;;;;;;;18.67;44.89;102514.03;5060273;28;20373;-64
2023/05/24 07:40:10;;;;;;;0.17;0.17;;;;;;;19.20;44.79;102514.66;5056488;28;20033;-63
2023/05/24 07:42:35;;;;;;;0.17;0.17;;;;;;;18.46;46.85;102511.09;5049929;28;20039;-63
2023/05/24 07:45:01;;;;;;;0.20;0.20;;;;;;;19.41;45.06;102510.50;5055092;28;20024;-64
2023/05/24 07:47:27;;;;;;;0.20;0.20;;;;;;;20.06;43.22;102508.13;5061579;28;20029;-63
2023/05/24 07:49:52;;;;;;;0.20;0.20;;;;;;;19.64;44.08;102513.09;5053655;28;20037;-64
2023/05/24 07:52:17;;;;;;;0.30;0.30;;;;;;;19.65;44.23;102500.31;5049682;28;20040;-63
2023/05/24 07:54:43;;;;;;;0.10;0.10;;;;;;;19.32;44.01;102501.00;5067751;28;20029;-63
2023/05/24 07:57:08;;;;;;;0.13;0.13;;;;;;;19.74;43.89;102507.84;5059307;28;20021;-64
2023/05/24 07:59:34;;;;;;;0.20;0.20;;;;;;;19.39;44.62;102506.34;5058885;28;20466;-65
2023/05/24 08:02:04;;;;;;;0.30;0.30;;;;;;;19.76;44.54;102505.69;5054954;28;20033;-65
2023/05/24 08:04:29;;;;;;;0.20;0.20;;;;;;;20.16;43.93;102505.56;5050210;28;20358;-63
2023/05/24 08:06:56;;;;;;;0.20;0.20;;;;;;;20.89;42.15;102503.41;5049887;28;20040;-64
2023/05/24 08:09:22;;;;;;;0.15;0.15;;;;;;;20.41;42.92;102505.16;5047664;28;20117;-63
2023/05/24 08:11:47;;;;;;;0.10;0.10;;;;;;;20.27;42.67;102499.22;5049315;28;20048;-64
2023/05/24 08:14:13;;;;;;;0.10;0.10;;;;;;;20.15;43.90;102492.97;5048838;28;20033;-63
2023/05/24 08:16:38;;;;;;;0.20;0.20;;;;;;;19.83;45.00;102505.53;5049219;28;20024;-64
2023/05/24 08:19:04;;;;;;;0.20;0.20;;;;;;;19.99;44.17;102500.09;5047303;28;20083;-62
2023/05/24 08:21:30;;;;;;;0.10;0.10;;;;;;;19.61;44.76;102508.16;5048329;28;20016;-63
2023/05/24 08:23:56;;;;;;;0.10;0.10;;;;;;;20.10;43.88;102507.41;5049388;28;20404;-64
2023/05/24 08:26:23;;;;;;;0.20;0.20;;;;;;;20.65;42.99;102504.72;5048830;28;20037;-64
2023/05/24 08:28:48;;;;;;;0.10;0.10;;;;;;;21.00;41.66;102505.19;5048409;28;20500;-64
2023/05/24 08:31:13;;;;;;;0.10;0.10;;;;;;;21.22;40.67;102509.88;5048612;28;20045;-64
2023/05/24 08:33:39;;;;;;;0.15;0.15;;;;;;;21.17;40.86;102512.53;5046137;28;26115;-64
2023/05/24 08:36:05;;;;;;;0.20;0.20;;;;;;;20.23;43.28;102508.97;5028977;28;20029;-64
2023/05/24 08:38:31;;;;;;;0.20;0.20;;;;;;;20.71;41.70;102511.06;5028973;28;20026;-64
2023/05/24 08:40:56;;;;;;;0.13;0.13;;;;;;;19.98;43.97;102522.19;5028833;28;20041;-63
2023/05/24 08:43:22;;;;;;;0.10;0.10;;;;;;;20.76;42.36;102519.34;5037199;28;20037;-64
2023/05/24 08:45:49;;;;;;;0.20;0.20;;;;;;;20.51;42.33;102518.97;5048431;28;20404;-63
2023/05/24 08:48:16;;;;;;;0.20;0.20;;;;;;;20.57;42.12;102517.97;5045967;28;20045;-64
2023/05/24 08:50:43;;;;;;;0.20;0.20;;;;;;;20.73;41.62;102514.38;5047705;28;20079;-64
2023/05/24 08:53:10;;;;;;;0.20;0.20;;;;;;;21.25;40.70;102512.91;5048175;28;20554;-64
2023/05/24 08:55:36;;;;;;;0.15;0.15;;;;;;;21.03;41.44;102511.28;5048071;28;20078;-63
2023/05/24 08:58:03;;;;;;;0.10;0.10;;;;;;;21.94;38.65;102511.19;5047930;28;20401;-64
2023/05/24 09:00:29;;;;;;;0.10;0.10;;;;;;;21.25;40.04;102521.09;5048397;28;20021;-63
2023/05/24 09:02:57;;;;;;;0.10;0.10;;;;;;;21.71;39.51;102519.72;5046556;28;20404;-63
2023/05/24 09:05:24;;;;;;;0.10;0.10;;;;;;;21.52;39.84;102511.03;5048103;28;20071;-63
2023/05/24 09:07:51;;;;;;;0.10;0.10;;;;;;;21.32;39.69;102513.56;5048277;28;20048;-64
2023/05/24 09:10:19;;;;;;;0.10;0.10;;;;;;;21.29;40.54;102510.47;5047972;28;20048;-64
2023/05/24 09:12:50;;;;;;;0.10;0.10;;;;;;;22.34;38.54;102518.94;5048398;28;20060;-64
2023/05/24 09:15:16;;;;;;;0.10;0.10;;;;;;;21.73;39.56;102514.81;5064081;28;20389;-63
2023/05/24 09:17:42;;;;;;;0.20;0.20;;;;;;;22.48;38.01;102522.88;5046405;28;20044;-63
2023/05/24 09:20:09;;;;;;;0.10;0.10;;;;;;;21.94;38.05;102511.19;5047565;28;20496;-64
2023/05/24 09:22:37;;;;;;;0.10;0.10;;;;;;;22.92;37.33;102516.03;5048316;28;20059;-65
2023/05/24 09:25:04;;;;;;;0.10;0.10;;;;;;;22.81;37.59;102516.25;5048731;28;20032;-64
2023/05/24 09:27:33;;;;;;;0.10;0.10;;;;;;;23.17;37.34;102516.16;5048158;28;20029;-64
2023/05/24 09:29:58;;;;;;;0.40;0.20;;;;;;;22.53;37.54;102517.41;5049079;28;20025;-65
2023/05/24 09:32:24;;;;;;;0.10;0.10;;;;;;;21.44;39.08;102518.88;5047959;28;20106;-66
2023/05/24 09:34:54;;;;;;;0.17;0.17;;;;;;;21.79;38.54;102511.88;5045858;28;20045;-65
2023/05/24 09:37:23;;;;;;;0.10;0.10;;;;;;;21.24;40.18;102510.44;5032366;28;20043;-65
2023/05/24 09:39:52;;;;;;;0.10;0.10;;;;;;;22.03;38.25;102514.28;5047752;28;20098;-64
2023/05/24 09:42:25;;;;;;;0.10;0.10;;;;;;;21.06;39.21;102516.22;5048389;28;20021;-64
2023/05/24 09:45:03;;;;;;;0.10;0.10;;;;;;;21.12;40.32;102517.94;5039048;28;20048;-64
2023/05/24 09:47:33;;;;;;;0.10;0.10;;;;;;;21.19;40.21;102516.66;5035350;28;20094;-63
2023/05/24 09:50:03;;;;;;;0.13;0.13;;;;;;;21.30;39.40;102517.63;5036242;28;20090;-64
2023/05/24 09:52:28;;;;;;;0.10;0.10;;;;;;;22.50;37.56;102516.03;5043895;28;20029;-63
2023/05/24 09:54:54;;;;;;;0.20;0.20;;;;;;;23.30;36.10;102510.16;5043259;28;20040;-65
2023/05/24 09:57:22;;;;;;;0.10;0.10;;;;;;;23.50;35.91;102506.69;5046649;28;20040;-64
2023/05/24 09:59:51;;;;;;;0.10;0.10;;;;;;;21.17;40.01;102507.09;5046727;28;20041;-63
2023/05/24 10:02:19;;;;;;;0.03;0.03;;;;;;;21.04;40.62;102512.91;5046772;28;20155;-64
2023/05/24 10:04:45;;;;;;;0.13;0.13;;;;;;;22.13;38.29;102508.91;5047423;28;20414;-64
2023/05/24 10:07:11;;;;;;;0.10;0.10;;;;;;;23.39;36.00;102502.25;5047734;28;20038;-63
2023/05/24 10:09:37;;;;;;;0.10;0.10;;;;;;;22.01;38.51;102502.78;5046737;28;20109;-67
2023/05/24 10:12:04;;;;;;;0.10;0.10;;;;;;;21.43;38.18;102509.00;5029820;28;20055;-65
2023/05/24 10:14:37;;;;;;;0.03;0.03;;;;;;;20.20;41.43;102503.19;5048011;28;20037;-63
2023/05/24 10:17:06;;;;;;;0.10;0.10;;;;;;;20.74;40.55;102503.19;5045750;28;20555;-64
2023/05/24 10:19:36;;;;;;;0.10;0.10;;;;;;;21.86;38.63;102506.19;5046191;28;20493;-65
2023/05/24 10:22:06;;;;;;;0.13;0.13;;;;;;;22.60;37.72;102498.88;5060025;28;20105;-65
2023/05/24 10:24:35;;;;;;;0.10;0.10;;;;;;;22.86;36.30;102502.59;5047259;28;20443;-64
2023/05/24 10:27:04;;;;;;;0.10;0.10;;;;;;;21.91;37.18;102497.22;5045634;28;20033;-64
2023/05/24 10:29:53;;;;;;;0.10;0.10;;;;;;;22.56;38.74;102494.97;5046498;28;20036;-64
2023/05/24 10:32:20;;;;;;;0.10;0.10;;;;;;;22.09;37.71;102502.31;5045030;28;20033;-63
2023/05/24 10:34:46;;;;;;;0.10;0.10;;;;;;;21.96;38.22;102500.81;5046859;28;20029;-65
2023/05/24 10:37:11;;;;;;;0.10;0.10;;;;;;;22.55;37.20;102504.28;5046571;28;20032;-63
2023/05/24 10:39:37;;;;;;;0.10;0.10;;;;;;;22.34;37.67;102508.81;5029222;28;20401;-63
2023/05/24 10:42:06;;;;;;;0.10;0.10;;;;;;;22.51;37.53;102494.94;5046780;28;20039;-63
2023/05/24 10:44:32;;;;;;;0.10;0.10;;;;;;;20.77;39.99;102501.88;5046272;28;20126;-63
2023/05/24 10:47:11;;;;;;;0.10;0.10;;;;;;;21.38;39.45;102500.75;5047154;28;20396;-64
2023/05/24 10:49:38;;;;;;;0.10;0.10;;;;;;;21.84;38.09;102505.63;5046610;28;20041;-63
2023/05/24 10:52:08;;;;;;;0.00;0.00;;;;;;;21.33;39.71;102506.16;5046581;28;20032;-64
2023/05/24 10:54:37;;;;;;;0.10;0.10;;;;;;;22.22;38.38;102501.84;5045886;28;20075;-63
2023/05/24 10:57:05;;;;;;;0.10;0.10;;;;;;;21.83;38.20;102501.25;5047250;28;20016;-63
2023/05/24 10:59:38;;;;;;;0.00;0.00;;;;;;;21.07;39.20;102506.94;5047298;28;20569;-63
2023/05/24 11:02:08;;;;;;;0.10;0.10;;;;;;;21.69;38.79;102495.34;5045022;28;20309;-67
2023/05/24 11:04:44;;;;;;;0.10;0.10;;;;;;;20.57;41.10;102501.59;5046457;28;20130;-63
2023/05/24 11:07:13;;;;;;;0.17;0.17;;;;;;;21.27;40.00;102507.16;5047874;28;20535;-63
2023/05/24 11:09:46;;;;;;;0.10;0.10;;;;;;;21.25;39.69;102499.22;5045453;28;20473;-64
2023/05/24 11:12:19;;;;;;;0.00;0.00;;;;;;;21.12;39.64;102505.09;5049164;28;20044;-64
2023/05/24 11:14:51;;;;;;;0.10;0.10;;;;;;;21.41;39.33;102502.97;5041619;28;20385;-64
2023/05/24 11:17:22;;;;;;;0.03;0.03;;;;;;;21.23;39.47;102501.41;5047198;28;20064;-66
2023/05/24 11:19:52;;;;;;;0.10;0.10;;;;;;;21.79;37.41;102503.66;5046361;28;20105;-64
2023/05/24 11:22:21;;;;;;;;;;;;;;;22.06;37.83;102498.16;5046958;28;20029;-65
2023/05/24 11:24:46;;;;;;;0.10;0.10;;;;;;;21.76;38.30;102497.84;5057932;28;19930;-64